Time;durP1;ratioP1;P1;durP2;ratioP2;P2;SDS_P1;SDS_P2;PMS_P1;PMS_P2;Temp;Humidity;BMP_temperature;BMP_pressure;BME280_temperature;BME280_humidity;BME280_pressure;Samples;Min_cycle;Max_cycle;Signal;HPM_P1;HPM_P2
2023/10/22 00:00:58;;;;;;;;;8.50;6.50;;;;;15.72;100.00;98520.41;6293448;20;2740909;-39
2023/10/22 00:03:26;;;;;;;;;10.00;10.00;;;;;15.70;100.00;98523.25;6288206;20;2769075;-38
2023/10/22 00:05:54;;;;;;;;;4.50;4.00;;;;;15.67;100.00;98523.53;6287920;20;2756500;-39
2023/10/22 00:08:22;;;;;;;;;8.00;8.00;;;;;15.79;100.00;98526.88;6286891;20;2746108;-38
2023/10/22 00:10:50;;;;;;;;;8.00;7.00;;;;;15.98;100.00;98520.44;6289770;20;2743122;-38
2023/10/22 00:13:18;;;;;;;;;7.00;7.00;;;;;15.62;100.00;98514.19;6286634;20;2733654;-39
2023/10/22 00:15:46;;;;;;;;;12.50;10.00;;;;;15.56;100.00;98515.63;6290396;20;2791011;-39
2023/10/22 00:18:14;;;;;;;;;10.50;9.00;;;;;15.45;100.00;98507.78;6282313;20;2777364;-38
2023/10/22 00:20:42;;;;;;;;;8.00;8.00;;;;;15.66;100.00;98499.34;6285441;20;2747194;-38
2023/10/22 00:23:12;;;;;;;;;9.20;9.20;;;;;15.63;100.00;98486.13;6307989;20;2783863;-38
2023/10/22 00:25:40;;;;;;;;;9.00;8.00;;;;;15.86;100.00;98472.97;6286150;20;2739898;-39
2023/10/22 00:28:08;;;;;;;;;12.00;8.00;;;;;15.59;100.00;98464.78;6288959;20;2756533;-38
2023/10/22 00:30:37;;;;;;;;;10.40;9.00;;;;;15.45;100.00;98468.03;6310939;20;2755513;-39
2023/10/22 00:33:06;;;;;;;;;12.00;8.33;;;;;15.54;100.00;98475.25;6283646;20;2758746;-39
2023/10/22 00:35:34;;;;;;;;;10.00;7.00;;;;;15.55;100.00;98485.03;6320542;20;2746279;-39
2023/10/22 00:38:04;;;;;;;;;10.20;8.60;;;;;15.73;100.00;98500.44;6311959;20;2766944;-38
2023/10/22 00:40:32;;;;;;;;;9.50;8.00;;;;;15.88;100.00;98493.47;6291613;20;2787969;-39
2023/10/22 00:43:05;;;;;;;;;9.50;9.00;;;;;15.64;100.00;98490.50;6283921;20;2766983;-38
2023/10/22 00:45:37;;;;;;;;;10.50;8.00;;;;;15.61;100.00;98490.84;6286391;20;2749235;-37
2023/10/22 00:48:09;;;;;;;;;10.40;8.60;;;;;15.35;100.00;98486.22;6310793;20;2772156;-38
2023/10/22 00:50:41;;;;;;;;;10.00;9.00;;;;;15.32;100.00;98486.50;6291707;20;2792090;-38
2023/10/22 00:53:16;;;;;;;;;7.00;7.00;;;;;15.67;100.00;98498.34;6312642;20;2731600;-38
2023/10/22 00:55:47;;;;;;;;;11.60;9.60;;;;;15.44;100.00;98488.00;6338728;20;2779496;-38
2023/10/22 00:58:17;;;;;;;;;8.00;8.00;;;;;15.55;100.00;98489.59;6308057;20;2732625;-39
2023/10/22 01:00:46;;;;;;;;;12.33;8.67;;;;;15.45;100.00;98486.13;6309192;20;2777369;-38
2023/10/22 01:03:14;;;;;;;;;9.50;9.00;;;;;15.45;100.00;98492.38;6323067;20;2741943;-38
2023/10/22 01:05:42;;;;;;;;;9.00;8.00;;;;;15.55;100.00;98485.03;6287687;20;2745141;-38
2023/10/22 01:08:12;;;;;;;;;9.00;8.40;;;;;15.56;100.00;98484.06;6310513;20;2748235;-38
2023/10/22 01:10:42;;;;;;;;;10.80;7.20;;;;;15.63;100.00;98480.72;6307994;20;2757628;-38
2023/10/22 01:13:12;;;;;;;;;9.20;8.80;;;;;15.74;100.00;98480.50;6308844;20;2757658;-38
2023/10/22 01:15:40;;;;;;;;;11.33;9.67;;;;;15.68;100.00;98481.94;6276421;20;3500367;-38
2023/10/22 01:18:10;;;;;;;;;8.20;8.00;;;;;15.71;100.00;98489.78;6338014;20;2744282;-38
2023/10/22 01:20:39;;;;;;;;;13.00;11.00;;;;;15.68;100.00;98487.34;6313993;20;2794628;-39
2023/10/22 01:23:10;;;;;;;;;16.67;8.67;;;;;15.75;100.00;98480.34;6314684;20;2791937;-38
2023/10/22 01:25:38;;;;;;;;;9.00;9.00;;;;;15.74;100.00;98478.63;6312930;20;3477319;-38
2023/10/22 01:28:06;;;;;;;;;9.00;9.00;;;;;15.80;100.00;98478.03;6321659;20;2757704;-38
2023/10/22 01:30:34;;;;;;;;;8.50;7.00;;;;;15.80;100.00;98482.59;6291393;20;2744009;-38
2023/10/22 01:33:06;;;;;;;;;7.00;7.00;;;;;15.59;100.00;98483.72;6283637;20;2731680;-37
2023/10/22 01:35:35;;;;;;;;;11.50;9.50;;;;;15.32;100.00;98489.22;6290405;20;2776404;-38
2023/10/22 01:38:03;;;;;;;;;12.00;8.00;;;;;15.39;100.00;98487.59;6287687;20;2758667;-39
2023/10/22 01:40:31;;;;;;;;;10.50;8.00;;;;;15.33;100.00;98477.41;6283690;20;2760222;-38
2023/10/22 01:42:59;;;;;;;;;13.00;10.00;;;;;15.32;100.00;98470.28;6285244;20;2667479;-38
2023/10/22 01:45:27;;;;;;;;;11.00;10.00;;;;;15.40;100.00;98470.34;6285437;20;2784813;-38
2023/10/22 01:47:56;;;;;;;;;10.00;10.00;;;;;15.40;100.00;98472.22;6287869;20;2778440;-38
2023/10/22 01:50:25;;;;;;;;;8.40;7.80;;;;;15.47;100.00;98466.03;6307370;20;2733617;-38
2023/10/22 01:52:54;;;;;;;;;12.00;9.00;;;;;15.43;100.00;98466.50;6314800;20;2774340;-38
2023/10/22 01:55:22;;;;;;;;;10.00;8.50;;;;;15.54;100.00;98469.81;6313778;20;2767069;-38
2023/10/22 01:57:51;;;;;;;;;12.67;11.00;;;;;15.50;100.00;98476.53;6281798;20;3512797;-40
2023/10/22 02:00:19;;;;;;;;;13.00;12.50;;;;;15.59;100.00;98459.38;6315503;20;2784647;-38
2023/10/22 02:02:47;;;;;;;;;12.00;11.00;;;;;15.51;100.00;98456.63;6285578;20;2792050;-38
2023/10/22 02:05:15;;;;;;;;;11.00;10.00;;;;;15.59;100.00;98467.50;6286790;20;2791028;-39
2023/10/22 02:07:43;;;;;;;;;8.00;8.00;;;;;15.45;100.00;98464.50;6285775;20;2741517;-38
2023/10/22 02:10:11;;;;;;;;;10.50;9.50;;;;;15.22;100.00;98458.69;6288827;20;2771200;-38
2023/10/22 02:12:41;;;;;;;;;14.40;11.00;;;;;15.31;100.00;98468.59;6309155;20;2796148;-38
2023/10/22 02:15:10;;;;;;;;;10.00;10.00;;;;;15.36;100.00;98466.28;6282846;20;2779402;-38
2023/10/22 02:17:39;;;;;;;;;13.40;10.20;;;;;15.28;100.00;98467.03;6334424;20;2794021;-39
2023/10/22 02:20:10;;;;;;;;;22.50;20.50;;;;;14.99;100.00;98475.38;6283245;20;2842988;-38
2023/10/22 02:22:39;;;;;;;;;28.50;24.00;;;;;15.04;100.00;98464.97;6279594;20;2828383;-38
2023/10/22 02:25:08;;;;;;;;;16.50;13.00;;;;;14.84;100.00;98466.06;6280453;20;2809687;-38
2023/10/22 02:27:37;;;;;;;;;15.67;13.67;;;;;14.76;100.00;98474.09;6278396;20;3535742;-38
2023/10/22 02:30:07;;;;;;;;;12.00;10.00;;;;;14.87;100.00;98487.38;6284894;20;2794041;-38
2023/10/22 02:32:35;;;;;;;;;12.50;10.00;;;;;14.73;100.00;98482.50;6288310;20;2791968;-38
2023/10/22 02:35:03;;;;;;;;;10.00;10.00;;;;;14.67;100.00;98482.09;6288688;20;2778434;-38
2023/10/22 02:37:31;;;;;;;;;11.00;11.00;;;;;14.96;100.00;98483.78;6282667;20;2742028;-38
2023/10/22 02:39:59;;;;;;;;;11.00;9.33;;;;;15.07;100.00;98491.69;6281545;20;2810892;-38
2023/10/22 02:42:29;;;;;;;;;16.33;14.33;;;;;14.85;100.00;98482.16;6309015;20;3530496;-38
2023/10/22 02:44:57;;;;;;;;;22.00;20.50;;;;;15.03;100.00;98484.84;6280444;20;2828529;-38
2023/10/22 02:47:26;;;;;;;;;17.67;16.00;;;;;15.04;100.00;98483.88;6281909;20;3556503;-38
2023/10/22 02:49:55;;;;;;;;;16.00;13.33;;;;;14.85;100.00;98483.97;6312591;20;3539851;-38
2023/10/22 02:52:24;;;;;;;;;18.50;16.00;;;;;14.98;100.00;98484.50;6279568;20;2831539;-38
2023/10/22 02:54:54;;;;;;;;;26.33;20.00;;;;;14.96;100.00;98491.91;6278581;20;2852387;-38
2023/10/22 02:57:23;;;;;;;;;22.67;20.67;;;;;15.06;100.00;98506.22;6314076;20;3580496;-38
2023/10/22 02:59:51;;;;;;;;;16.50;16.50;;;;;14.86;100.00;98510.03;6278960;20;2833652;-39
2023/10/22 03:02:20;;;;;;;;;15.50;13.50;;;;;15.13;100.00;98526.19;6282945;20;2491962;-38
2023/10/22 03:04:48;;;;;;;;;12.00;12.00;;;;;15.36;100.00;98525.78;6285524;20;2494144;-38
2023/10/22 03:07:16;;;;;;;;;14.67;11.00;;;;;15.19;100.00;98521.19;6281090;20;3518005;-38
2023/10/22 03:09:45;;;;;;;;;12.00;11.00;;;;;15.31;100.00;98511.88;6308035;20;3513872;-39
2023/10/22 03:12:14;;;;;;;;;13.00;13.00;;;;;15.14;100.00;98510.84;6309702;20;3400282;-38
2023/10/22 03:14:42;;;;;;;;;12.33;12.33;;;;;15.18;100.00;98517.66;6309759;20;3531938;-38
2023/10/22 03:17:10;;;;;;;;;14.00;11.50;;;;;15.12;100.00;98513.69;6278714;20;2787926;-38
2023/10/22 03:19:39;;;;;;;;;17.67;12.67;;;;;15.30;100.00;98511.03;6282553;20;3534609;-47
2023/10/22 03:22:10;;;;;;;;;14.67;12.00;;;;;15.29;100.00;98513.88;6311169;20;3517948;-47
2023/10/22 03:24:39;;;;;;;;;11.67;10.00;;;;;15.20;100.00;98515.66;6310452;20;3515986;-47
2023/10/22 03:27:06;;;;;;;;;13.00;11.00;;;;;15.29;100.00;98513.88;6280180;20;2794031;-47
2023/10/22 03:29:34;;;;;;;;;15.00;12.00;;;;;15.37;100.00;98511.25;6274908;20;2787813;-47
2023/10/22 03:32:04;;;;;;;;;14.00;11.00;;;;;15.48;100.00;98507.44;6278691;20;3522163;-47
2023/10/22 03:34:31;;;;;;;;;15.00;13.00;;;;;15.38;100.00;98496.72;6313943;20;2794861;-47
2023/10/22 03:37:04;;;;;;;;;18.33;13.33;;;;;15.46;100.00;98499.50;6277311;20;3537750;-46
2023/10/22 03:39:33;;;;;;;;;11.67;11.67;;;;;15.34;100.00;98507.00;6279983;20;3513865;-47
2023/10/22 03:42:01;;;;;;;;;15.50;12.00;;;;;15.40;100.00;98510.94;6314474;20;2798158;-47
2023/10/22 03:44:31;;;;;;;;;13.60;9.80;;;;;15.40;100.00;98510.94;6301985;20;2786797;-47
2023/10/22 03:46:59;;;;;;;;;12.00;12.00;;;;;15.51;100.00;98512.59;6273531;20;3525279;-47
2023/10/22 03:49:27;;;;;;;;;15.00;13.00;;;;;15.67;100.00;98501.06;6312674;20;2782663;-47
2023/10/22 03:51:55;;;;;;;;;12.00;11.50;;;;;15.44;100.00;98498.81;6284706;20;2794048;-47
2023/10/22 03:54:23;;;;;;;;;15.50;12.00;;;;;15.55;100.00;98495.00;6281154;20;2797138;-47
2023/10/22 03:56:51;;;;;;;;;10.50;10.50;;;;;15.67;100.00;98503.75;6279786;20;2796139;-47
2023/10/22 03:59:19;;;;;;;;;17.00;12.00;;;;;15.67;100.00;98511.88;6279411;20;2485694;-47
2023/10/22 04:01:48;;;;;;;;;16.67;12.00;;;;;15.55;100.00;98505.84;6280182;20;3528406;-47
2023/10/22 04:04:16;;;;;;;;;19.00;11.33;;;;;15.64;100.00;98506.75;6282046;20;2817989;-47
2023/10/22 04:06:44;;;;;;;;;13.00;10.50;;;;;15.51;100.00;98508.00;6313334;20;2789942;-47
2023/10/22 04:09:13;;;;;;;;;12.00;10.33;;;;;15.43;100.00;98499.81;6280916;20;3516998;-47
2023/10/22 04:11:42;;;;;;;;;9.00;8.33;;;;;15.63;100.00;98499.66;6307787;20;2748207;-47
2023/10/22 04:14:13;;;;;;;;;11.33;11.33;;;;;15.61;100.00;98504.38;6306186;20;3516034;-47
2023/10/22 04:16:41;;;;;;;;;17.00;13.00;;;;;15.61;100.00;98507.06;6307048;20;2492011;-47
2023/10/22 04:19:09;;;;;;;;;12.00;11.00;;;;;15.73;100.00;98511.28;6283513;20;2796173;-47
2023/10/22 04:21:37;;;;;;;;;11.50;11.50;;;;;15.57;100.00;98511.94;6286440;20;2791960;-47
2023/10/22 04:24:07;;;;;;;;;17.33;13.67;;;;;15.59;100.00;98512.66;6283685;20;2814990;-47
2023/10/22 04:26:35;;;;;;;;;12.00;11.00;;;;;15.76;100.00;98516.38;6318314;20;2790946;-47
2023/10/22 04:29:03;;;;;;;;;11.00;9.50;;;;;15.88;100.00;98517.84;6287748;20;2776383;-46
2023/10/22 04:31:31;;;;;;;;;14.50;11.00;;;;;15.74;100.00;98518.38;6288469;20;2798306;-48
2023/10/22 04:33:59;;;;;;;;;14.50;11.00;;;;;15.78;100.00;98522.50;6289299;20;2798208;-49
2023/10/22 04:36:26;;;;;;;;;12.50;12.00;;;;;15.85;100.00;98517.28;6284512;20;2788939;-47
2023/10/22 04:38:56;;;;;;;;;9.20;7.00;;;;;15.94;100.00;98519.06;6311802;20;2763942;-47
2023/10/22 04:41:26;;;;;;;;;7.20;4.80;;;;;15.90;100.00;98525.78;6308597;20;2748367;-47
2023/10/22 04:43:57;;;;;;;;;6.57;6.00;;;;;16.01;100.00;98518.28;6358476;20;3451330;-47
2023/10/22 04:46:26;;;;;;;;;6.80;5.00;;;;;16.00;100.00;98519.25;6339007;20;2745534;-48
2023/10/22 04:48:56;;;;;;;;;8.20;7.00;;;;;15.95;100.00;98521.59;6339781;20;2744199;-48
2023/10/22 04:51:26;;;;;;;;;8.00;6.80;;;;;16.15;100.00;98524.13;6302684;20;2738316;-48
2023/10/22 04:53:53;;;;;;;;;7.00;5.00;;;;;16.15;100.00;98529.53;6317697;20;2745075;-48
2023/10/22 04:56:21;;;;;;;;;4.00;4.00;;;;;16.07;100.00;98534.91;6289053;20;2750282;-48
2023/10/22 04:58:49;;;;;;;;;3.00;3.00;;;;;16.05;100.00;98542.31;6286043;20;2775466;-48
2023/10/22 05:01:17;;;;;;;;;5.00;4.00;;;;;16.11;100.00;98547.94;6285332;20;2756538;-48
2023/10/22 05:03:45;;;;;;;;;4.00;4.00;;;;;16.17;100.00;98558.16;6286943;20;2747301;-48
2023/10/22 05:06:13;;;;;;;;;2.00;2.00;;;;;16.09;100.00;98566.22;6286913;20;2741993;-48
2023/10/22 05:08:41;;;;;;;;;2.00;1.00;;;;;16.17;100.00;98568.16;6289179;20;2727406;-48
2023/10/22 05:11:16;;;;;;;;;2.00;2.00;;;;;16.10;100.00;98575.19;6287621;20;2737758;-48
2023/10/22 05:13:45;;;;;;;;;4.00;2.00;;;;;16.20;100.00;98578.66;6286796;20;2756660;-49
2023/10/22 05:16:14;;;;;;;;;2.00;2.00;;;;;16.14;100.00;98585.56;6287053;20;2749249;-48
2023/10/22 05:18:42;;;;;;;;;0.00;0.00;;;;;16.30;100.00;98590.25;6290121;20;2727937;-40
2023/10/22 05:21:10;;;;;;;;;3.50;2.00;;;;;16.22;100.00;98592.91;6287572;20;2734674;-41
2023/10/22 05:23:37;;;;;;;;;1.00;1.00;;;;;16.13;100.00;98596.53;6283196;20;2735688;-42
2023/10/22 05:26:12;;;;;;;;;1.00;1.00;;;;;16.22;100.00;98609.16;6288000;20;2726429;-41
2023/10/22 05:28:43;;;;;;;;;3.00;2.00;;;;;16.32;100.00;98619.88;6315801;20;2755513;-41
2023/10/22 05:31:18;;;;;;;;;2.00;2.00;;;;;16.17;100.00;98627.72;6279143;20;2751327;-41
2023/10/22 05:33:47;;;;;;;;;2.00;2.00;;;;;16.24;100.00;98636.91;6287405;20;2744047;-42
2023/10/22 05:36:19;;;;;;;;;5.00;4.00;;;;;16.31;100.00;98639.84;6286531;20;2754517;-42
2023/10/22 05:38:49;;;;;;;;;5.00;5.00;;;;;16.24;100.00;98648.63;6288138;20;2734623;-41
2023/10/22 05:41:22;;;;;;;;;8.00;6.00;;;;;16.20;100.00;98646.38;6287855;20;2738942;-41
2023/10/22 05:43:59;;;;;;;;;10.50;10.00;;;;;16.31;100.00;98653.41;6286539;20;2796137;-41
2023/10/22 05:46:36;;;;;;;;;12.50;11.50;;;;;16.28;100.00;98661.84;6280571;20;2802396;-41
2023/10/22 05:49:05;;;;;;;;;15.67;15.00;;;;;16.32;100.00;98663.22;6281284;20;3550395;-44
2023/10/22 05:51:33;;;;;;;;;13.00;13.00;;;;;16.40;100.00;98666.88;6281658;20;2500296;-41
2023/10/22 05:54:06;;;;;;;;;17.00;15.00;;;;;16.37;100.00;98672.56;6280344;20;2810753;-41
2023/10/22 05:56:38;;;;;;;;;17.50;15.50;;;;;16.40;100.00;98691.25;6278832;20;2489847;-42
2023/10/22 05:59:08;;;;;;;;;16.00;14.00;;;;;16.38;100.00;98690.56;6278812;20;2492069;-42
2023/10/22 06:01:38;;;;;;;;;13.50;13.50;;;;;16.31;100.00;98702.16;6280478;20;2500301;-41
2023/10/22 06:04:08;;;;;;;;;14.33;13.00;;;;;16.35;100.00;98709.84;6279000;20;3519121;-42
2023/10/22 06:06:37;;;;;;;;;13.00;13.00;;;;;16.07;100.00;98717.16;6279833;20;2500396;-41
2023/10/22 06:09:05;;;;;;;;;14.00;14.00;;;;;16.30;100.00;98720.28;6282773;20;2496277;-42
2023/10/22 06:11:33;;;;;;;;;10.50;10.50;;;;;16.24;100.00;98727.16;6287465;20;2794130;-41
2023/10/22 06:14:04;;;;;;;;;10.67;9.00;;;;;16.32;100.00;98733.66;6279933;20;2773216;-42
2023/10/22 06:16:34;;;;;;;;;7.00;6.40;;;;;16.35;100.00;98749.59;6337326;20;2744036;-42
2023/10/22 06:19:01;;;;;;;;;4.50;4.50;;;;;16.16;100.00;98747.88;6316456;20;2745201;-43
2023/10/22 06:21:29;;;;;;;;;6.50;5.50;;;;;16.15;100.00;98748.91;6285172;20;2746091;-42
2023/10/22 06:23:59;;;;;;;;;4.00;4.00;;;;;16.07;100.00;98757.78;6308172;20;2750382;-43
2023/10/22 06:26:29;;;;;;;;;4.40;4.40;;;;;16.10;100.00;98757.47;6338770;20;2754420;-42
2023/10/22 06:28:57;;;;;;;;;9.50;8.50;;;;;16.22;100.00;98766.25;6282639;20;2754471;-42
2023/10/22 06:31:25;;;;;;;;;8.00;7.00;;;;;16.17;100.00;98763.16;6291066;20;2741038;-42
2023/10/22 06:33:54;;;;;;;;;10.00;9.00;;;;;16.33;100.00;98781.44;6305950;20;2775290;-44
2023/10/22 06:36:25;;;;;;;;;10.67;9.00;;;;;16.36;100.00;98776.53;6280442;20;2760210;-43
2023/10/22 06:38:54;;;;;;;;;10.00;8.00;;;;;16.46;100.00;98796.28;6312588;20;2771344;-41
2023/10/22 06:41:25;;;;;;;;;10.00;9.40;;;;;16.40;100.00;98786.09;6338954;20;2788827;-41
2023/10/22 06:43:53;;;;;;;;;11.00;8.50;;;;;16.64;100.00;98777.34;6280441;20;2759750;-41
2023/10/22 06:46:23;;;;;;;;;5.00;5.00;;;;;17.92;100.00;98778.53;6300314;20;2748267;-44
2023/10/22 06:48:51;;;;;;;;;7.00;6.00;;;;;17.37;100.00;98772.66;6282619;20;2735855;-45
2023/10/22 06:51:22;;;;;;;;;7.40;6.20;;;;;16.95;100.00;98784.22;6307078;20;2741392;-41
2023/10/22 06:53:50;;;;;;;;;4.50;4.50;;;;;16.68;100.00;98794.97;6300161;20;2752491;-42
2023/10/22 06:56:18;;;;;;;;;7.00;4.00;;;;;16.64;100.00;98806.25;6274185;20;2748213;-40
2023/10/22 06:58:46;;;;;;;;;5.50;5.50;;;;;16.75;100.00;98810.63;6277174;20;2748219;-41
2023/10/22 07:01:15;;;;;;;;;8.00;5.00;;;;;16.41;100.00;98809.44;6276593;20;2748433;-39
2023/10/22 07:03:47;;;;;;;;;7.00;5.50;;;;;16.34;100.00;98812.91;6279912;20;2725284;-39
2023/10/22 07:06:16;;;;;;;;;7.60;4.80;;;;;16.30;100.00;98820.50;6296334;20;2748204;-39
2023/10/22 07:08:49;;;;;;;;;5.00;4.71;;;;;16.50;100.00;98821.22;6345631;20;3453425;-49
2023/10/22 07:11:18;;;;;;;;;7.60;5.20;;;;;16.26;100.00;98821.81;6325831;20;2739907;-49
2023/10/22 07:13:46;;;;;;;;;8.00;6.00;;;;;16.13;100.00;98830.28;6310640;20;2736840;-41
2023/10/22 07:16:14;;;;;;;;;7.00;6.00;;;;;16.31;100.00;98833.03;6275153;20;2736843;-40
2023/10/22 07:18:44;;;;;;;;;7.20;7.20;;;;;16.41;100.00;98828.41;6296099;20;2739896;-41
2023/10/22 07:21:12;;;;;;;;;7.00;5.00;;;;;16.31;100.00;98827.63;6303425;20;2749335;-41
2023/10/22 07:23:39;;;;;;;;;7.50;6.00;;;;;16.46;100.00;98834.22;6274545;20;2731618;-40
2023/10/22 07:26:09;;;;;;;;;7.40;6.20;;;;;16.50;100.00;98836.63;6299026;20;2736848;-48
2023/10/22 07:28:41;;;;;;;;;6.00;6.00;;;;;16.59;100.00;98838.44;6303920;20;2734679;-39
2023/10/22 07:31:12;;;;;;;;;7.80;7.20;;;;;16.73;100.00;98843.31;6298481;20;2732630;-40
2023/10/22 07:33:42;;;;;;;;;7.60;6.00;;;;;16.46;100.00;98838.81;6327698;20;2739871;-40
2023/10/22 07:36:10;;;;;;;;;6.00;6.00;;;;;16.54;100.00;98841.59;6303797;20;2741953;-39
2023/10/22 07:38:40;;;;;;;;;8.80;7.40;;;;;16.51;100.00;98843.75;6298623;20;2745192;-41
2023/10/22 07:41:16;;;;;;;;;12.00;10.00;;;;;16.62;100.00;98838.97;6302046;20;3508702;-40
2023/10/22 07:43:45;;;;;;;;;10.67;7.67;;;;;16.66;100.00;98834.06;6304152;20;2769193;-40
2023/10/22 07:46:17;;;;;;;;;11.00;9.33;;;;;17.03;100.00;98841.22;6299641;20;3497280;-42
2023/10/22 07:48:45;;;;;;;;;10.00;10.00;;;;;16.80;100.00;98841.72;6308978;20;2779500;-40
2023/10/22 07:51:16;;;;;;;;;12.00;12.00;;;;;16.87;100.00;98853.63;6279610;20;2794500;-40
2023/10/22 07:53:46;;;;;;;;;8.00;8.00;;;;;16.75;100.00;98838.59;6273241;20;2748402;-40
2023/10/22 07:56:18;;;;;;;;;10.67;10.00;;;;;16.81;100.00;98848.00;6276043;20;3514935;-43
2023/10/22 07:58:47;;;;;;;;;12.67;11.00;;;;;16.97;100.00;98852.72;6307953;20;3513823;-41
2023/10/22 08:01:15;;;;;;;;;12.00;12.00;;;;;17.01;100.00;98868.53;6280903;20;2796228;-42
2023/10/22 08:03:43;;;;;;;;;15.00;14.00;;;;;17.06;100.00;98862.59;6281679;20;2801440;-42
2023/10/22 08:06:12;;;;;;;;;14.50;14.50;;;;;17.37;100.00;98873.88;6274411;20;2687200;-41
2023/10/22 08:08:40;;;;;;;;;12.00;11.00;;;;;17.33;100.00;98873.38;6312609;20;2795106;-41
2023/10/22 08:11:09;;;;;;;;;12.00;11.00;;;;;17.63;100.00;98870.34;6276669;20;3520056;-41
2023/10/22 08:13:38;;;;;;;;;11.67;11.67;;;;;17.92;100.00;98880.91;6308058;20;3532560;-43
2023/10/22 08:16:07;;;;;;;;;13.00;13.00;;;;;17.75;100.00;98880.78;6274758;20;2487921;-42
2023/10/22 08:18:36;;;;;;;;;10.67;9.67;;;;;17.90;100.00;98888.34;6276194;20;3500302;-41
2023/10/22 08:21:06;;;;;;;;;15.00;14.00;;;;;17.65;100.00;98885.47;6308891;20;2492101;-41
2023/10/22 08:23:37;;;;;;;;;17.00;17.00;;;;;17.83;100.00;98881.88;6278124;20;2834703;-41
2023/10/22 08:26:06;;;;;;;;;10.00;10.00;;;;;18.26;100.00;98882.78;6273617;20;3515923;-42
2023/10/22 08:28:35;;;;;;;;;11.00;10.00;;;;;18.11;100.00;98888.81;6305895;20;3512853;-42
2023/10/22 08:31:04;;;;;;;;;11.00;11.00;;;;;18.38;100.00;98886.91;6306672;20;3512814;-42
2023/10/22 08:33:32;;;;;;;;;11.50;10.50;;;;;18.23;100.00;98891.25;6311332;20;2792098;-42
2023/10/22 08:36:07;;;;;;;;;11.00;10.80;;;;;18.09;100.00;98903.56;6299854;20;2792038;-43
2023/10/22 08:38:35;;;;;;;;;9.00;9.00;;;;;17.88;100.00;98912.97;6282821;20;2750319;-42
2023/10/22 08:41:10;;;;;;;;;11.33;9.67;;;;;17.74;100.00;98900.78;6275478;20;3503543;-42
2023/10/22 08:43:40;;;;;;;;;13.33;10.00;;;;;18.25;98.42;98902.81;6299976;20;3516025;-42
2023/10/22 08:46:09;;;;;;;;;10.33;9.33;;;;;17.59;99.80;98918.69;6302870;20;2769072;-43
2023/10/22 08:48:40;;;;;;;;;11.33;8.67;;;;;17.79;100.00;98924.78;6305380;20;2760843;-43
2023/10/22 08:51:10;;;;;;;;;8.75;8.75;;;;;18.06;100.00;98923.78;6331369;20;1924316;-43
2023/10/22 08:53:39;;;;;;;;;10.00;9.00;;;;;17.98;100.00;98934.56;6306753;20;2772298;-41
2023/10/22 08:56:08;;;;;;;;;11.67;10.00;;;;;18.12;100.00;98933.16;6305776;20;3512881;-41
2023/10/22 08:58:37;;;;;;;;;13.00;10.33;;;;;18.29;100.00;98931.38;6271692;20;3520195;-41
2023/10/22 09:01:06;;;;;;;;;18.00;16.00;;;;;18.57;100.00;98930.13;6272527;20;3547222;-41
2023/10/22 09:03:34;;;;;;;;;10.00;9.00;;;;;18.29;99.94;98936.78;6280892;20;2774263;-42
2023/10/22 09:06:03;;;;;;;;;4.50;4.50;;;;;17.96;98.83;98939.34;6281591;20;2749329;-42
2023/10/22 09:08:45;;;;;;;;;8.33;7.33;;;;;17.73;98.40;98952.56;6280869;20;2751329;-41
2023/10/22 09:11:18;;;;;;;;;7.00;7.00;;;;;17.78;98.37;98959.22;6332580;20;2733652;-41
2023/10/22 09:13:46;;;;;;;;;7.50;5.50;;;;;18.01;97.10;98961.44;6315207;20;2743029;-41
2023/10/22 09:16:31;;;;;;;;;10.60;9.40;;;;;17.55;97.96;98971.56;6306474;20;2779565;-41
2023/10/22 09:19:01;;;;;;;;;8.00;7.00;;;;;17.60;99.82;98980.09;6283512;20;2742993;-41
2023/10/22 09:21:45;;;;;;;;;7.60;6.40;;;;;17.78;97.66;98967.34;6298853;20;2728455;-41
2023/10/22 09:24:14;;;;;;;;;9.33;9.00;;;;;17.89;96.24;98962.72;6306169;20;2758719;-43
2023/10/22 09:26:48;;;;;;;;;7.00;7.00;;;;;18.42;93.89;98958.94;6331981;20;1915938;-41
2023/10/22 09:29:17;;;;;;;;;8.00;8.00;;;;;18.49;95.12;98960.00;6277273;20;2744134;-42
2023/10/22 09:31:56;;;;;;;;;8.00;6.00;;;;;17.89;94.33;98960.00;6280346;20;2745181;-44
2023/10/22 09:34:30;;;;;;;;;10.67;10.67;;;;;18.01;92.51;98971.44;6280264;20;2794122;-42
2023/10/22 09:37:00;;;;;;;;;8.80;7.80;;;;;18.48;89.07;98969.16;6331240;20;2736794;-41
2023/10/22 09:39:43;;;;;;;;;6.50;6.00;;;;;18.78;88.81;98981.41;6311645;20;2743129;-41
2023/10/22 09:42:17;;;;;;;;;6.00;6.00;;;;;18.63;89.18;98989.28;6284700;20;2739885;-43
2023/10/22 09:44:47;;;;;;;;;8.80;8.80;;;;;19.13;88.12;98987.63;6330811;20;2740979;-43
2023/10/22 09:47:20;;;;;;;;;8.67;7.00;;;;;18.93;86.84;98984.34;6307067;20;2735776;-42
2023/10/22 09:50:07;;;;;;;;;4.20;4.20;;;;;18.35;87.57;98993.22;6332196;20;2748223;-43
2023/10/22 09:52:38;;;;;;;;;10.00;10.00;;;;;17.99;89.18;98990.63;6311897;20;2792002;-42
2023/10/22 09:55:13;;;;;;;;;5.20;4.20;;;;;17.85;87.81;98983.03;6329994;20;2748358;-42
2023/10/22 09:57:46;;;;;;;;;13.00;11.33;;;;;18.68;85.22;98986.09;6272049;20;2794161;-43
2023/10/22 10:00:17;;;;;;;;;33.33;31.67;;;;;19.17;84.78;98988.13;6306449;20;3594140;-40
2023/10/22 10:02:46;;;;;;;;;3.00;3.00;;;;;18.42;85.54;98986.97;6275573;20;2750400;-42
2023/10/22 10:05:19;;;;;;;;;9.80;7.00;;;;;17.90;88.95;98997.84;6330866;20;2755689;-42
2023/10/22 10:07:48;;;;;;;;;5.00;4.00;;;;;18.34;86.03;98991.53;6270588;20;2751363;-41
2023/10/22 10:10:17;;;;;;;;;9.67;9.67;;;;;18.26;85.23;99003.19;6302519;20;2777652;-41
2023/10/22 10:12:45;;;;;;;;;6.00;6.00;;;;;18.50;83.71;99005.19;6304079;20;2743090;-41
2023/10/22 10:15:59;;;;;;;;;3.60;3.60;;;;;18.62;84.11;99009.34;6325543;20;2756700;-41
2023/10/22 10:19:10;;;;;;;;;4.00;4.00;;;;;18.46;84.88;99011.09;6273439;20;2747232;-42
2023/10/22 10:21:40;;;;;;;;;4.00;4.00;;;;;18.54;85.00;99014.75;6308839;20;2747176;-43
2023/10/22 10:24:31;;;;;;;;;3.20;3.20;;;;;18.40;83.68;99020.75;6345890;20;2479583;-42
2023/10/22 10:27:00;;;;;;;;;4.00;4.00;;;;;18.48;84.63;99011.81;6302963;20;2746694;-43
2023/10/22 10:29:31;;;;;;;;;3.00;3.00;;;;;18.36;83.98;99022.13;6305162;20;2750406;-42
2023/10/22 10:32:22;;;;;;;;;5.20;5.20;;;;;18.42;85.54;99030.47;6330308;20;2747334;-41
2023/10/22 10:34:54;;;;;;;;;3.60;3.40;;;;;18.91;83.60;99032.63;6326727;20;2744030;-44
2023/10/22 10:37:25;;;;;;;;;4.40;4.40;;;;;18.45;84.86;99040.16;6326515;20;2743128;-44
2023/10/22 10:39:53;;;;;;;;;12.00;12.00;;;;;18.37;86.09;99037.41;6301541;20;2483699;-42
2023/10/22 10:42:48;;;;;;;;;9.33;8.00;;;;;18.50;85.34;99042.41;6273076;20;2761771;-41
2023/10/22 10:45:18;;;;;;;;;6.80;6.00;;;;;18.57;85.27;99038.88;6329020;20;2748261;-41
2023/10/22 10:47:49;;;;;;;;;8.60;6.60;;;;;18.95;83.93;99031.25;6324682;20;2740936;-41
2023/10/22 10:50:20;;;;;;;;;4.00;4.00;;;;;18.49;85.31;99030.69;6308037;20;2747201;-47
2023/10/22 10:52:52;;;;;;;;;5.00;5.00;;;;;18.15;87.43;99036.06;6327798;20;2743147;-42
2023/10/22 10:55:21;;;;;;;;;7.00;7.00;;;;;18.10;87.83;99036.53;6328899;20;2732559;-41
2023/10/22 10:57:53;;;;;;;;;10.60;8.00;;;;;18.02;89.83;99033.78;6325940;20;2765897;-43
2023/10/22 11:00:30;;;;;;;;;25.00;25.00;;;;;18.40;86.60;99051.53;6270583;20;3600247;-40
2023/10/22 11:03:04;;;;;;;;;37.00;32.00;;;;;18.36;87.92;99055.56;6301266;20;3608693;-42
2023/10/22 11:05:37;;;;;;;;;11.00;11.00;;;;;18.73;87.50;99051.72;6267996;20;3512766;-41
2023/10/22 11:08:18;;;;;;;;;12.00;11.00;;;;;18.73;87.43;99059.88;6305177;20;2788886;-42
2023/10/22 11:10:47;;;;;;;;;14.33;14.33;;;;;18.47;86.37;99064.47;6274725;20;3531380;-41
2023/10/22 11:13:25;;;;;;;;;14.67;12.00;;;;;18.56;86.61;99058.94;6299810;20;3528418;-40
2023/10/22 11:16:03;;;;;;;;;8.33;8.33;;;;;18.71;87.59;99047.44;6299294;20;2737954;-41
2023/10/22 11:19:07;;;;;;;;;6.60;6.60;;;;;19.14;84.36;99053.78;6325740;20;2748275;-42